Time,TemperatureF,DewpointF,PressureIn,WindDirection,WindDirectionDegrees,WindSpeedMPH,WindSpeedGustMPH,Humidity,HourlyPrecipIn,Conditions,Clouds,dailyrainin,SoftwareType,DateUTC
2013-12-09 00:02:00,8.4,6.7,30.18,ESE,107,0.0,0.0,93,0.00,,,-99.99,Meteorologica,2013-12-09 06:02:00,
2013-12-09 00:07:00,8.1,6.5,30.18,ESE,107,0.0,0.0,93,0.00,,,-99.99,Meteorologica,2013-12-09 06:07:00,
2013-12-09 00:12:00,7.7,6.1,30.18,ESE,107,0.0,0.0,93,0.00,,,-99.99,Meteorologica,2013-12-09 06:12:00,
2013-12-09 00:17:00,7.5,5.9,30.18,ESE,107,0.0,0.0,93,0.00,,,-99.99,Meteorologica,2013-12-09 06:17:00,
2013-12-09 00:22:00,7.4,5.8,30.18,ESE,107,0.0,0.0,93,0.00,,,-99.99,Meteorologica,2013-12-09 06:22:00,
2013-12-09 00:27:00,7.4,5.9,30.18,ESE,107,0.0,0.0,93,0.00,,,-99.99,Meteorologica,2013-12-09 06:27:00,
2013-12-09 00:33:00,7.4,5.9,30.17,ESE,107,0.0,0.0,93,0.00,,,-99.99,Meteorologica,2013-12-09 06:33:00,
2013-12-09 00:38:00,7.3,5.7,30.18,ESE,107,0.0,0.0,93,0.00,,,-99.99,Meteorologica,2013-12-09 06:38:00,
2013-12-09 00:43:00,6.8,5.2,30.18,ESE,107,0.0,0.0,93,0.00,,,-99.99,Meteorologica,2013-12-09 06:43:00,
2013-12-09 00:48:00,6.4,4.8,30.19,ESE,107,0.0,0.0,93,0.00,,,-99.99,Meteorologica,2013-12-09 06:48:00,
2013-12-09 00:53:00,6.1,4.5,30.19,ESE,107,0.0,0.0,93,0.00,,,-99.99,Meteorologica,2013-12-09 06:53:00,
2013-12-09 00:58:00,5.7,4.1,30.19,ESE,107,0.0,0.0,93,0.00,,,-99.99,Meteorologica,2013-12-09 06:58:00,
2013-12-09 01:03:00,5.6,4.0,30.19,ESE,107,0.0,0.0,93,0.00,,,-99.99,Meteorologica,2013-12-09 07:03:00,
2013-12-09 01:08:00,5.3,3.8,30.19,ESE,107,0.0,0.0,93,0.00,,,-99.99,Meteorologica,2013-12-09 07:08:00,
2013-12-09 01:13:00,5.1,3.5,30.19,ESE,107,0.0,0.0,93,0.00,,,-99.99,Meteorologica,2013-12-09 07:13:00,
2013-12-09 01:18:00,5.0,3.4,30.18,ESE,107,0.0,0.0,93,0.00,,,-99.99,Meteorologica,2013-12-09 07:18:00,
2013-12-09 01:23:00,4.9,3.3,30.19,ESE,107,0.0,0.0,93,0.00,,,-99.99,Meteorologica,2013-12-09 07:23:00,
2013-12-09 01:28:00,4.9,3.3,30.19,ESE,107,0.0,0.0,93,0.00,,,-99.99,Meteorologica,2013-12-09 07:28:00,
2013-12-09 01:33:00,4.6,3.0,30.19,ESE,107,0.0,0.0,93,0.00,,,-99.99,Meteorologica,2013-12-09 07:33:00,
2013-12-09 01:38:00,4.6,3.0,30.19,ESE,107,0.0,0.0,93,0.00,,,-99.99,Meteorologica,2013-12-09 07:38:00,
2013-12-09 01:43:00,4.4,2.8,30.19,ESE,107,0.0,0.0,93,0.00,,,-99.99,Meteorologica,2013-12-09 07:43:00,
2013-12-09 01:48:00,4.4,2.8,30.20,ESE,107,0.0,0.0,93,0.00,,,-99.99,Meteorologica,2013-12-09 07:48:00,
2013-12-09 01:53:00,4.6,3.1,30.20,ESE,107,0.0,0.0,93,0.00,,,-99.99,Meteorologica,2013-12-09 07:53:00,
2013-12-09 01:58:00,4.8,3.3,30.20,ESE,107,0.0,0.0,93,0.00,,,-99.99,Meteorologica,2013-12-09 07:58:00,
2013-12-09 02:03:00,4.6,3.0,30.20,ESE,107,0.0,0.0,93,0.00,,,-99.99,Meteorologica,2013-12-09 08:03:00,
2013-12-09 02:08:00,4.6,3.1,30.20,ESE,107,0.0,0.0,93,0.00,,,-99.99,Meteorologica,2013-12-09 08:08:00,
2013-12-09 02:13:00,4.9,3.5,30.20,ESE,107,0.0,0.0,93,0.00,,,-99.99,Meteorologica,2013-12-09 08:13:00,
2013-12-09 02:18:00,5.3,3.7,30.20,ESE,107,0.0,0.0,94,0.00,,,-99.99,Meteorologica,2013-12-09 08:18:00,
2013-12-09 02:23:00,5.9,4.6,30.20,ESE,107,0.0,0.0,94,0.00,,,-99.99,Meteorologica,2013-12-09 08:23:00,
2013-12-09 02:28:00,6.3,4.8,30.20,ESE,107,0.0,0.0,93,0.00,,,-99.99,Meteorologica,2013-12-09 08:28:00,
2013-12-09 02:33:00,6.5,5.0,30.21,ESE,107,0.0,0.0,93,0.00,,,-99.99,Meteorologica,2013-12-09 08:33:00,
2013-12-09 02:38:00,6.5,4.9,30.21,ESE,107,0.0,0.0,93,0.00,,,-99.99,Meteorologica,2013-12-09 08:38:00,
2013-12-09 02:43:00,6.5,4.8,30.20,ESE,107,0.0,0.0,92,0.00,,,-99.99,Meteorologica,2013-12-09 08:43:00,
2013-12-09 02:48:00,6.5,4.8,30.21,ESE,107,0.0,0.0,92,0.00,,,-99.99,Meteorologica,2013-12-09 08:48:00,
2013-12-09 02:53:00,6.3,4.6,30.21,ESE,107,0.0,0.0,92,0.00,,,-99.99,Meteorologica,2013-12-09 08:53:00,
2013-12-09 02:58:00,6.1,4.3,30.22,ESE,107,0.0,0.0,92,0.00,,,-99.99,Meteorologica,2013-12-09 08:58:00,
2013-12-09 03:03:00,5.5,3.7,30.22,ESE,107,0.0,0.0,92,0.00,,,-99.99,Meteorologica,2013-12-09 09:03:00,
2013-12-09 03:08:00,5.3,3.5,30.22,ESE,107,0.0,0.0,92,0.00,,,-99.99,Meteorologica,2013-12-09 09:08:00,
2013-12-09 03:13:00,5.3,3.4,30.23,ESE,107,0.0,0.0,92,0.00,,,-99.99,Meteorologica,2013-12-09 09:13:00,
2013-12-09 03:18:00,5.0,3.0,30.23,ESE,107,0.0,0.0,91,0.00,,,-99.99,Meteorologica,2013-12-09 09:18:00,
2013-12-09 03:23:00,5.1,3.1,30.23,ESE,107,0.0,0.0,91,0.00,,,-99.99,Meteorologica,2013-12-09 09:23:00,
2013-12-09 03:28:00,4.9,2.8,30.24,ESE,107,0.0,0.0,91,0.00,,,-99.99,Meteorologica,2013-12-09 09:28:00,
2013-12-09 03:33:00,4.9,2.8,30.24,ESE,107,0.0,0.0,91,0.00,,,-99.99,Meteorologica,2013-12-09 09:33:00,
2013-12-09 03:38:00,4.8,2.7,30.24,ESE,107,0.0,0.0,91,0.00,,,-99.99,Meteorologica,2013-12-09 09:38:00,
2013-12-09 03:43:00,4.7,2.6,30.24,ESE,107,0.0,0.0,91,0.00,,,-99.99,Meteorologica,2013-12-09 09:43:00,
2013-12-09 03:48:00,4.5,2.4,30.24,WNW,290,0.6,4.4,91,0.00,,,-99.99,Meteorologica,2013-12-09 09:48:00,
2013-12-09 03:53:00,4.3,2.2,30.24,WNW,290,0.0,0.0,90,0.00,,,-99.99,Meteorologica,2013-12-09 09:53:00,
2013-12-09 03:58:00,4.2,2.0,30.24,WNW,290,0.0,0.0,90,0.00,,,-99.99,Meteorologica,2013-12-09 09:58:00,
2013-12-09 04:03:00,4.2,2.0,30.25,WNW,290,0.0,0.0,90,0.00,,,-99.99,Meteorologica,2013-12-09 10:03:00,
2013-12-09 04:08:00,4.0,1.8,30.25,WNW,290,0.0,0.0,90,0.00,,,-99.99,Meteorologica,2013-12-09 10:08:00,
2013-12-09 04:13:00,4.0,1.8,30.25,WNW,290,0.0,0.0,90,0.00,,,-99.99,Meteorologica,2013-12-09 10:13:00,
2013-12-09 04:18:00,3.9,1.6,30.26,WNW,290,0.0,0.0,90,0.00,,,-99.99,Meteorologica,2013-12-09 10:18:00,
2013-12-09 04:23:00,3.8,1.5,30.26,WNW,290,0.0,0.0,90,0.00,,,-99.99,Meteorologica,2013-12-09 10:23:00,
2013-12-09 04:28:00,3.7,1.4,30.26,WNW,290,0.0,0.0,90,0.00,,,-99.99,Meteorologica,2013-12-09 10:28:00,
2013-12-09 04:33:00,3.5,1.2,30.26,WNW,290,0.0,0.0,90,0.00,,,-99.99,Meteorologica,2013-12-09 10:33:00,
2013-12-09 04:38:00,3.3,1.0,30.26,WNW,290,0.0,0.0,90,0.00,,,-99.99,Meteorologica,2013-12-09 10:38:00,
2013-12-09 04:43:00,3.1,0.9,30.26,WNW,290,0.0,0.0,90,0.00,,,-99.99,Meteorologica,2013-12-09 10:43:00,
2013-12-09 04:48:00,3.2,0.9,30.26,WNW,290,0.0,0.0,90,0.00,,,-99.99,Meteorologica,2013-12-09 10:48:00,
2013-12-09 04:53:00,3.2,0.8,30.26,WNW,290,0.0,0.0,89,0.00,,,-99.99,Meteorologica,2013-12-09 10:53:00,
2013-12-09 04:58:00,3.2,0.7,30.26,WNW,290,0.0,0.0,89,0.00,,,-99.99,Meteorologica,2013-12-09 10:58:00,
2013-12-09 05:03:00,3.1,0.6,30.26,WNW,290,0.0,0.0,88,0.00,,,-99.99,Meteorologica,2013-12-09 11:03:00,
2013-12-09 05:07:00,3.1,0.3,30.26,WNW,290,0.0,0.0,88,0.00,,,-99.99,Meteorologica,2013-12-09 11:07:00,
2013-12-09 05:12:00,3.2,0.6,30.26,WNW,290,0.0,0.0,88,0.00,,,-99.99,Meteorologica,2013-12-09 11:12:00,
2013-12-09 05:17:00,3.0,0.4,30.26,WNW,290,0.0,0.0,88,0.00,,,-99.99,Meteorologica,2013-12-09 11:17:00,
2013-12-09 05:22:00,3.0,0.3,30.27,WNW,290,0.0,0.0,88,0.00,,,-99.99,Meteorologica,2013-12-09 11:22:00,
2013-12-09 05:27:00,2.8,0.2,30.27,WNW,290,0.0,0.0,88,0.00,,,-99.99,Meteorologica,2013-12-09 11:27:00,
2013-12-09 05:32:00,2.5,-0.2,30.27,WNW,290,0.0,0.0,88,0.00,,,-99.99,Meteorologica,2013-12-09 11:32:00,
2013-12-09 05:37:00,2.4,-0.2,30.27,WNW,290,0.0,0.0,88,0.00,,,-99.99,Meteorologica,2013-12-09 11:37:00,
2013-12-09 05:42:00,1.9,-0.6,30.27,WNW,290,0.0,0.0,88,0.00,,,-99.99,Meteorologica,2013-12-09 11:42:00,
2013-12-09 05:47:00,1.6,-0.8,30.27,WNW,290,0.0,0.0,89,0.00,,,-99.99,Meteorologica,2013-12-09 11:47:00,
2013-12-09 05:52:00,1.3,-1.0,30.27,WNW,290,0.0,0.0,89,0.00,,,-99.99,Meteorologica,2013-12-09 11:52:00,
2013-12-09 05:57:00,1.2,-1.0,30.29,WNW,290,0.0,0.0,89,0.00,,,-99.99,Meteorologica,2013-12-09 11:57:00,
2013-12-09 06:02:00,1.5,-0.8,30.28,WNW,290,0.0,0.0,89,0.00,,,-99.99,Meteorologica,2013-12-09 12:02:00,
2013-12-09 06:07:00,1.3,-0.9,30.29,WNW,290,0.0,0.0,89,0.00,,,-99.99,Meteorologica,2013-12-09 12:07:00,
2013-12-09 06:12:00,1.3,-1.1,30.28,WNW,290,0.0,0.0,89,0.00,,,-99.99,Meteorologica,2013-12-09 12:12:00,
2013-12-09 06:17:00,1.0,-1.4,30.28,WNW,290,0.0,0.0,89,0.00,,,-99.99,Meteorologica,2013-12-09 12:17:00,
2013-12-09 06:22:00,0.8,-1.5,30.29,WNW,290,0.0,0.0,89,0.00,,,-99.99,Meteorologica,2013-12-09 12:22:00,
2013-12-09 06:27:00,0.4,-1.9,30.29,WNW,290,0.0,0.0,89,0.00,,,-99.99,Meteorologica,2013-12-09 12:27:00,
2013-12-09 06:32:00,0.3,-1.9,30.29,WNW,290,0.0,0.0,90,0.00,,,-99.99,Meteorologica,2013-12-09 12:32:00,
2013-12-09 06:37:00,0.3,-1.9,30.30,WNW,290,0.0,0.0,90,0.00,,,-99.99,Meteorologica,2013-12-09 12:37:00,
2013-12-09 06:42:00,0.1,-2.1,30.30,WNW,290,0.0,0.0,89,0.00,,,-99.99,Meteorologica,2013-12-09 12:42:00,
2013-12-09 06:47:00,-0.2,-2.4,30.30,WNW,290,0.0,0.0,89,0.00,,,-99.99,Meteorologica,2013-12-09 12:47:00,
2013-12-09 06:52:00,-0.4,-2.6,30.31,WNW,290,0.0,0.0,89,0.00,,,-99.99,Meteorologica,2013-12-09 12:52:00,
2013-12-09 06:57:00,-0.4,-2.6,30.31,WNW,290,0.0,0.0,89,0.00,,,-99.99,Meteorologica,2013-12-09 12:57:00,
2013-12-09 07:02:00,-0.9,-3.2,30.31,WNW,290,0.0,0.0,89,0.00,,,-99.99,Meteorologica,2013-12-09 13:02:00,
2013-12-09 07:07:00,-1.1,-3.3,30.32,WNW,290,0.0,0.0,89,0.00,,,-99.99,Meteorologica,2013-12-09 13:07:00,
2013-12-09 07:12:00,-1.1,-3.4,30.32,WNW,290,0.0,0.0,90,0.00,,,-99.99,Meteorologica,2013-12-09 13:12:00,
2013-12-09 07:17:00,-1.2,-3.4,30.32,WNW,290,0.0,0.0,90,0.00,,,-99.99,Meteorologica,2013-12-09 13:17:00,
2013-12-09 07:22:00,-1.3,-3.5,30.32,WNW,290,0.0,0.0,90,0.00,,,-99.99,Meteorologica,2013-12-09 13:22:00,
2013-12-09 07:27:00,-1.2,-3.4,30.32,WNW,290,0.0,0.0,90,0.00,,,-99.99,Meteorologica,2013-12-09 13:27:00,
2013-12-09 07:32:00,-0.9,-3.0,30.32,WNW,290,0.0,0.0,90,0.00,,,-99.99,Meteorologica,2013-12-09 13:32:00,
2013-12-09 07:37:00,-0.4,-2.6,30.32,WNW,290,0.0,0.0,90,0.00,,,-99.99,Meteorologica,2013-12-09 13:37:00,
2013-12-09 07:42:00,-0.3,-2.6,30.32,WNW,290,0.0,0.0,89,0.00,,,-99.99,Meteorologica,2013-12-09 13:42:00,
2013-12-09 07:47:00,0.0,-2.4,30.32,WNW,290,0.0,0.0,89,0.00,,,-99.99,Meteorologica,2013-12-09 13:47:00,
2013-12-09 07:52:00,0.0,-2.4,30.32,WNW,290,0.0,0.0,89,0.00,,,-99.99,Meteorologica,2013-12-09 13:52:00,
2013-12-09 07:57:00,0.2,-2.3,30.32,WNW,290,0.0,0.0,88,0.00,,,-99.99,Meteorologica,2013-12-09 13:57:00,
2013-12-09 08:02:00,0.3,-2.2,30.33,WNW,290,0.0,0.0,88,0.00,,,-99.99,Meteorologica,2013-12-09 14:02:00,
2013-12-09 08:07:00,0.6,-2.0,30.33,WNW,290,0.0,0.0,88,0.00,,,-99.99,Meteorologica,2013-12-09 14:07:00,
2013-12-09 08:12:00,1.1,-1.6,30.33,WNW,290,0.0,0.0,87,0.00,,,-99.99,Meteorologica,2013-12-09 14:12:00,
2013-12-09 08:17:00,1.2,-1.5,30.34,WNW,290,0.0,0.0,87,0.00,,,-99.99,Meteorologica,2013-12-09 14:17:00,
2013-12-09 08:22:00,1.2,-1.6,30.33,WNW,290,0.0,0.0,87,0.00,,,-99.99,Meteorologica,2013-12-09 14:22:00,
2013-12-09 08:27:00,1.6,-1.3,30.34,WNW,290,0.0,0.0,87,0.00,,,-99.99,Meteorologica,2013-12-09 14:27:00,
2013-12-09 08:32:00,1.7,-1.3,30.34,WNW,290,0.0,0.0,86,0.00,,,-99.99,Meteorologica,2013-12-09 14:32:00,
2013-12-09 08:37:00,1.7,-1.2,30.34,WNW,290,0.0,0.0,87,0.00,,,-99.99,Meteorologica,2013-12-09 14:37:00,
2013-12-09 08:42:00,2.1,-0.9,30.34,WNW,290,0.0,0.0,86,0.00,,,-99.99,Meteorologica,2013-12-09 14:42:00,
2013-12-09 08:47:00,2.2,-0.8,30.34,WNW,290,0.0,0.0,86,0.00,,,-99.99,Meteorologica,2013-12-09 14:47:00,
2013-12-09 08:52:00,2.4,-0.7,30.34,WNW,290,0.0,0.0,86,0.00,,,-99.99,Meteorologica,2013-12-09 14:52:00,
2013-12-09 08:57:00,2.7,-0.5,30.34,WNW,290,0.0,0.0,85,0.00,,,-99.99,Meteorologica,2013-12-09 14:57:00,
2013-12-09 09:02:00,2.9,-0.2,30.35,WNW,290,0.0,0.0,86,0.00,,,-99.99,Meteorologica,2013-12-09 15:02:00,
2013-12-09 09:07:00,3.2,0.0,30.35,WNW,290,0.0,0.0,85,0.00,,,-99.99,Meteorologica,2013-12-09 15:07:00,
2013-12-09 09:12:00,3.5,0.2,30.35,WNW,290,0.0,0.0,86,0.00,,,-99.99,Meteorologica,2013-12-09 15:12:00,
2013-12-09 09:17:00,3.9,0.7,30.35,WNW,290,0.0,0.0,86,0.00,,,-99.99,Meteorologica,2013-12-09 15:17:00,
2013-12-09 09:22:00,3.9,0.3,30.37,WNW,290,0.0,0.0,84,0.00,,,-99.99,Meteorologica,2013-12-09 15:22:00,
2013-12-09 09:27:00,4.0,0.3,30.36,WNW,290,0.0,0.0,84,0.00,,,-99.99,Meteorologica,2013-12-09 15:27:00,
2013-12-09 09:32:00,4.2,0.6,30.37,WNW,290,0.0,0.0,84,0.00,,,-99.99,Meteorologica,2013-12-09 15:32:00,
2013-12-09 09:37:00,4.2,0.4,30.37,WNW,290,0.0,0.0,84,0.00,,,-99.99,Meteorologica,2013-12-09 15:37:00,
2013-12-09 09:42:00,4.6,0.9,30.37,WNW,290,0.0,0.0,84,0.00,,,-99.99,Meteorologica,2013-12-09 15:42:00,
2013-12-09 09:47:00,4.8,0.9,30.38,WNW,290,0.0,0.0,83,0.00,,,-99.99,Meteorologica,2013-12-09 15:47:00,
2013-12-09 09:52:00,5.1,0.9,30.38,NNW,347,0.7,4.5,82,0.00,,,-99.99,Meteorologica,2013-12-09 15:52:00,
2013-12-09 09:57:00,5.4,1.3,30.39,West,273,0.0,2.8,82,0.00,,,-99.99,Meteorologica,2013-12-09 15:57:00,
2013-12-09 10:02:00,5.5,1.1,30.39,WNW,303,0.6,4.4,81,0.00,,,-99.99,Meteorologica,2013-12-09 16:02:00,
2013-12-09 10:07:00,5.8,1.2,30.39,WSW,254,3.0,5.2,81,0.00,,,-99.99,Meteorologica,2013-12-09 16:07:00,
2013-12-09 10:12:00,6.2,1.7,30.40,WNW,293,0.0,0.0,81,0.00,,,-99.99,Meteorologica,2013-12-09 16:12:00,
2013-12-09 10:17:00,6.6,2.3,30.39,NW,305,3.7,6.8,82,0.00,,,-99.99,Meteorologica,2013-12-09 16:17:00,
2013-12-09 10:22:00,7.0,2.3,30.40,WNW,288,0.5,4.8,80,0.00,,,-99.99,Meteorologica,2013-12-09 16:22:00,
2013-12-09 10:27:00,7.3,2.1,30.40,WNW,296,0.0,6.7,79,0.00,,,-99.99,Meteorologica,2013-12-09 16:27:00,
2013-12-09 10:32:00,7.6,2.2,30.40,WNW,292,1.0,4.5,78,0.00,,,-99.99,Meteorologica,2013-12-09 16:32:00,
2013-12-09 10:37:00,7.9,2.5,30.40,WNW,292,0.0,0.0,77,0.00,,,-99.99,Meteorologica,2013-12-09 16:37:00,
2013-12-09 10:42:00,8.2,2.8,30.40,WNW,287,1.0,5.3,78,0.00,,,-99.99,Meteorologica,2013-12-09 16:42:00,
2013-12-09 10:47:00,8.4,2.8,30.40,NW,326,0.0,0.0,77,0.00,,,-99.99,Meteorologica,2013-12-09 16:47:00,
2013-12-09 10:52:00,8.4,2.8,30.40,NW,326,0.0,0.0,77,0.00,,,-99.99,Meteorologica,2013-12-09 16:52:00,
2013-12-09 10:57:00,8.7,3.4,30.39,WNW,286,1.7,5.8,78,0.00,,,-99.99,Meteorologica,2013-12-09 16:57:00,
2013-12-09 11:02:00,9.2,3.6,30.40,WNW,286,0.0,0.0,77,0.00,,,-99.99,Meteorologica,2013-12-09 17:02:00,
2013-12-09 11:07:00,9.3,3.1,30.40,WNW,286,0.0,0.0,75,0.00,,,-99.99,Meteorologica,2013-12-09 17:07:00,
2013-12-09 11:12:00,9.2,3.0,30.40,WNW,286,0.0,0.0,75,0.00,,,-99.99,Meteorologica,2013-12-09 17:12:00,
2013-12-09 11:17:00,9.6,3.8,30.39,WNW,286,0.0,0.0,76,0.00,,,-99.99,Meteorologica,2013-12-09 17:17:00,
2013-12-09 11:22:00,9.8,4.2,30.39,WNW,286,0.0,0.0,77,0.00,,,-99.99,Meteorologica,2013-12-09 17:22:00,
2013-12-09 11:27:00,9.7,4.1,30.39,NNW,334,0.2,3.3,77,0.00,,,-99.99,Meteorologica,2013-12-09 17:27:00,
2013-12-09 11:32:00,9.9,3.8,30.38,NNW,334,0.0,0.0,75,0.00,,,-99.99,Meteorologica,2013-12-09 17:32:00,
2013-12-09 11:37:00,10.2,4.1,30.38,NNW,334,0.0,0.0,75,0.00,,,-99.99,Meteorologica,2013-12-09 17:37:00,
2013-12-09 11:42:00,10.3,3.9,30.38,West,275,0.0,0.0,74,0.00,,,-99.99,Meteorologica,2013-12-09 17:42:00,
2013-12-09 11:47:00,10.7,4.6,30.38,West,275,0.0,0.0,75,0.00,,,-99.99,Meteorologica,2013-12-09 17:47:00,
2013-12-09 11:52:00,10.7,4.1,30.38,West,262,0.0,4.2,74,0.00,,,-99.99,Meteorologica,2013-12-09 17:52:00,
2013-12-09 11:57:00,10.6,4.0,30.38,WNW,293,3.1,7.2,74,0.00,,,-99.99,Meteorologica,2013-12-09 17:57:00,
2013-12-09 12:02:00,10.6,4.4,30.38,NW,321,0.0,0.0,75,0.00,,,-99.99,Meteorologica,2013-12-09 18:02:00,
2013-12-09 12:07:00,10.6,4.0,30.37,WSW,258,0.0,0.0,74,0.00,,,-99.99,Meteorologica,2013-12-09 18:07:00,
2013-12-09 12:12:00,10.8,3.7,30.37,WNW,285,0.0,0.0,72,0.00,,,-99.99,Meteorologica,2013-12-09 18:12:00,
2013-12-09 12:17:00,10.9,3.5,30.37,West,280,0.0,0.0,71,0.00,,,-99.99,Meteorologica,2013-12-09 18:17:00,
2013-12-09 12:22:00,11.4,4.0,30.37,West,280,0.0,0.0,71,0.00,,,-99.99,Meteorologica,2013-12-09 18:22:00,
2013-12-09 12:27:00,11.4,3.3,30.35,West,280,0.0,0.0,69,0.00,,,-99.99,Meteorologica,2013-12-09 18:27:00,
2013-12-09 12:32:00,11.8,3.7,30.35,West,280,0.0,0.0,69,0.00,,,-99.99,Meteorologica,2013-12-09 18:32:00,
2013-12-09 12:37:00,11.9,4.4,30.35,West,273,0.0,0.0,71,0.00,,,-99.99,Meteorologica,2013-12-09 18:37:00,
2013-12-09 12:42:00,11.7,3.7,30.35,West,273,0.0,0.0,69,0.00,,,-99.99,Meteorologica,2013-12-09 18:42:00,
2013-12-09 12:47:00,12.1,3.7,30.35,West,273,0.0,0.0,68,0.00,,,-99.99,Meteorologica,2013-12-09 18:47:00,
2013-12-09 12:52:00,12.1,4.1,30.35,West,273,0.0,0.0,69,0.00,,,-99.99,Meteorologica,2013-12-09 18:52:00,
2013-12-09 12:57:00,12.0,4.2,30.34,West,273,0.0,0.0,70,0.00,,,-99.99,Meteorologica,2013-12-09 18:57:00,
2013-12-09 13:02:00,12.1,4.6,30.33,West,273,0.0,0.0,70,0.00,,,-99.99,Meteorologica,2013-12-09 19:02:00,
2013-12-09 13:07:00,12.3,4.1,30.34,West,273,0.0,0.0,68,0.00,,,-99.99,Meteorologica,2013-12-09 19:07:00,
2013-12-09 13:12:00,12.3,4.3,30.33,West,273,0.0,0.0,69,0.00,,,-99.99,Meteorologica,2013-12-09 19:12:00,
2013-12-09 13:17:00,12.0,3.9,30.33,West,273,0.0,0.0,69,0.00,,,-99.99,Meteorologica,2013-12-09 19:17:00,
2013-12-09 13:22:00,12.1,4.4,30.32,West,273,0.0,0.0,70,0.00,,,-99.99,Meteorologica,2013-12-09 19:22:00,
2013-12-09 13:27:00,12.7,4.7,30.32,West,273,0.0,0.0,69,0.00,,,-99.99,Meteorologica,2013-12-09 19:27:00,
2013-12-09 13:32:00,13.4,5.4,30.32,West,273,0.0,0.0,69,0.00,,,-99.99,Meteorologica,2013-12-09 19:32:00,
2013-12-09 13:37:00,13.3,4.6,30.32,West,273,0.0,0.0,67,0.00,,,-99.99,Meteorologica,2013-12-09 19:37:00,
2013-12-09 13:42:00,13.5,5.5,30.32,West,273,0.0,0.0,69,0.00,,,-99.99,Meteorologica,2013-12-09 19:42:00,
2013-12-09 13:47:00,14.0,5.3,30.32,West,273,0.0,0.0,67,0.00,,,-99.99,Meteorologica,2013-12-09 19:47:00,
2013-12-09 13:52:00,13.7,5.6,30.31,South,190,0.0,0.0,69,0.00,,,-99.99,Meteorologica,2013-12-09 19:52:00,
2013-12-09 13:57:00,14.1,5.9,30.31,South,190,0.0,0.0,69,0.00,,,-99.99,Meteorologica,2013-12-09 19:57:00,
2013-12-09 14:02:00,14.1,5.4,30.31,South,190,0.0,0.0,67,0.00,,,-99.99,Meteorologica,2013-12-09 20:02:00,
2013-12-09 14:07:00,14.1,5.1,30.30,West,259,0.0,4.1,66,0.00,,,-99.99,Meteorologica,2013-12-09 20:07:00,
2013-12-09 14:12:00,14.4,6.2,30.30,West,259,0.0,0.0,69,0.00,,,-99.99,Meteorologica,2013-12-09 20:12:00,
2013-12-09 14:17:00,14.7,6.1,30.30,West,259,0.0,0.0,67,0.00,,,-99.99,Meteorologica,2013-12-09 20:17:00,
2013-12-09 14:22:00,14.6,5.8,30.30,West,259,0.0,0.0,67,0.00,,,-99.99,Meteorologica,2013-12-09 20:22:00,
2013-12-09 14:27:00,14.6,5.6,30.30,West,259,0.0,0.0,66,0.00,,,-99.99,Meteorologica,2013-12-09 20:27:00,
2013-12-09 14:32:00,14.2,5.8,30.30,NW,307,0.0,0.0,68,0.00,,,-99.99,Meteorologica,2013-12-09 20:32:00,
2013-12-09 14:37:00,14.4,5.9,30.30,SSW,194,1.8,5.9,68,0.00,,,-99.99,Meteorologica,2013-12-09 20:37:00,
2013-12-09 14:42:00,14.5,6.0,30.29,SSW,207,0.0,0.0,68,0.00,,,-99.99,Meteorologica,2013-12-09 20:42:00,
2013-12-09 14:47:00,14.4,5.5,30.29,SSW,207,0.0,0.0,67,0.00,,,-99.99,Meteorologica,2013-12-09 20:47:00,
2013-12-09 14:52:00,14.1,5.9,30.29,SSW,207,0.0,0.0,69,0.00,,,-99.99,Meteorologica,2013-12-09 20:52:00,
2013-12-09 14:57:00,14.1,6.2,30.29,West,269,0.0,0.0,70,0.00,,,-99.99,Meteorologica,2013-12-09 20:57:00,
2013-12-09 15:02:00,14.0,5.9,30.29,West,269,0.0,0.0,69,0.00,,,-99.99,Meteorologica,2013-12-09 21:02:00,
2013-12-09 15:07:00,14.0,5.9,30.29,West,269,0.0,0.0,69,0.00,,,-99.99,Meteorologica,2013-12-09 21:07:00,
2013-12-09 15:12:00,14.2,6.4,30.29,South,176,0.0,0.0,70,0.00,,,-99.99,Meteorologica,2013-12-09 21:12:00,
2013-12-09 15:17:00,14.2,6.3,30.29,South,176,0.0,0.0,70,0.00,,,-99.99,Meteorologica,2013-12-09 21:17:00,
2013-12-09 15:22:00,14.2,6.3,30.28,South,176,0.0,0.0,70,0.00,,,-99.99,Meteorologica,2013-12-09 21:22:00,
2013-12-09 15:27:00,14.1,6.3,30.27,SSW,194,0.0,0.0,70,0.00,,,-99.99,Meteorologica,2013-12-09 21:27:00,
2013-12-09 15:32:00,14.1,6.3,30.27,SSW,194,0.0,0.0,70,0.00,,,-99.99,Meteorologica,2013-12-09 21:32:00,
2013-12-09 15:37:00,14.1,6.3,30.28,SSW,194,0.0,0.0,70,0.00,,,-99.99,Meteorologica,2013-12-09 21:37:00,
2013-12-09 15:42:00,14.1,6.2,30.28,SSW,194,0.0,0.0,70,0.00,,,-99.99,Meteorologica,2013-12-09 21:42:00,
2013-12-09 15:47:00,13.9,6.3,30.28,SSW,194,0.0,0.0,71,0.00,,,-99.99,Meteorologica,2013-12-09 21:47:00,
2013-12-09 15:52:00,13.6,5.8,30.28,SSW,194,0.0,0.0,70,0.00,,,-99.99,Meteorologica,2013-12-09 21:52:00,
2013-12-09 15:57:00,13.5,6.0,30.27,WNW,290,1.4,7.6,71,0.00,,,-99.99,Meteorologica,2013-12-09 21:57:00,
2013-12-09 16:02:00,13.2,5.8,30.27,West,273,0.0,0.0,71,0.00,,,-99.99,Meteorologica,2013-12-09 22:02:00,
2013-12-09 16:07:00,13.3,6.0,30.27,West,273,0.0,0.0,71,0.00,,,-99.99,Meteorologica,2013-12-09 22:07:00,
2013-12-09 16:12:00,13.4,6.1,30.27,West,273,0.0,0.0,72,0.00,,,-99.99,Meteorologica,2013-12-09 22:12:00,
2013-12-09 16:17:00,13.3,6.0,30.27,SSW,208,0.0,0.0,72,0.00,,,-99.99,Meteorologica,2013-12-09 22:17:00,
2013-12-09 16:22:00,13.1,5.8,30.27,SSW,206,3.2,6.6,72,0.00,,,-99.99,Meteorologica,2013-12-09 22:22:00,
2013-12-09 16:27:00,13.2,6.2,30.27,South,175,0.2,0.0,73,0.00,,,-99.99,Meteorologica,2013-12-09 22:27:00,
2013-12-09 16:32:00,12.9,5.9,30.27,South,175,0.0,0.0,73,0.00,,,-99.99,Meteorologica,2013-12-09 22:32:00,
2013-12-09 16:37:00,12.9,6.1,30.27,South,191,1.6,5.1,73,0.00,,,-99.99,Meteorologica,2013-12-09 22:37:00,
2013-12-09 16:42:00,12.6,5.8,30.27,SSW,211,0.0,4.2,73,0.00,,,-99.99,Meteorologica,2013-12-09 22:42:00,
2013-12-09 16:47:00,12.6,5.9,30.26,SSW,211,0.0,0.0,74,0.00,,,-99.99,Meteorologica,2013-12-09 22:47:00,
2013-12-09 16:52:00,12.4,5.9,30.27,SSW,211,0.0,0.0,74,0.00,,,-99.99,Meteorologica,2013-12-09 22:52:00,
2013-12-09 16:57:00,12.1,5.6,30.26,SSW,211,0.0,0.0,74,0.00,,,-99.99,Meteorologica,2013-12-09 22:57:00,
2013-12-09 17:02:00,11.9,5.4,30.27,SSW,211,0.0,0.0,74,0.00,,,-99.99,Meteorologica,2013-12-09 23:02:00,
2013-12-09 17:07:00,11.5,5.1,30.27,SSW,211,0.0,0.0,74,0.00,,,-99.99,Meteorologica,2013-12-09 23:07:00,
2013-12-09 17:12:00,11.3,5.1,30.27,SSW,211,0.0,0.0,75,0.00,,,-99.99,Meteorologica,2013-12-09 23:12:00,
2013-12-09 17:17:00,10.8,4.8,30.27,SSW,211,0.0,0.0,76,0.00,,,-99.99,Meteorologica,2013-12-09 23:17:00,
2013-12-09 17:23:00,10.6,4.9,30.27,SSW,211,0.0,0.0,77,0.00,,,-99.99,Meteorologica,2013-12-09 23:23:00,
2013-12-09 17:28:00,10.3,4.8,30.27,South,188,1.2,4.3,77,0.00,,,-99.99,Meteorologica,2013-12-09 23:28:00,
2013-12-09 17:33:00,10.3,4.8,30.27,SSW,213,0.0,0.0,78,0.00,,,-99.99,Meteorologica,2013-12-09 23:33:00,
2013-12-09 17:38:00,10.1,4.6,30.27,SSW,213,0.2,1.7,77,0.00,,,-99.99,Meteorologica,2013-12-09 23:38:00,
2013-12-09 17:43:00,10.0,4.6,30.27,SSW,213,0.0,0.0,78,0.00,,,-99.99,Meteorologica,2013-12-09 23:43:00,
2013-12-09 17:48:00,9.9,4.6,30.27,SSW,213,0.0,0.0,78,0.00,,,-99.99,Meteorologica,2013-12-09 23:48:00,
2013-12-09 17:53:00,9.7,4.5,30.27,SSW,213,0.0,0.0,78,0.00,,,-99.99,Meteorologica,2013-12-09 23:53:00,
2013-12-09 17:58:00,9.4,4.3,30.27,SSW,213,0.0,0.0,79,0.00,,,-99.99,Meteorologica,2013-12-09 23:58:00,
2013-12-09 18:03:00,9.1,4.1,30.26,SSW,213,0.0,0.0,79,0.00,,,-99.99,Meteorologica,2013-12-10 00:03:00,
2013-12-09 18:08:00,8.8,4.0,30.27,SSE,163,0.0,4.2,80,0.00,,,-99.99,Meteorologica,2013-12-10 00:08:00,
2013-12-09 18:13:00,8.4,3.8,30.26,SSW,193,1.9,6.5,81,0.00,,,-99.99,Meteorologica,2013-12-10 00:13:00,
2013-12-09 18:18:00,8.4,3.8,30.27,South,172,0.0,0.0,81,0.00,,,-99.99,Meteorologica,2013-12-10 00:18:00,
2013-12-09 18:23:00,8.2,3.6,30.27,SSW,200,0.0,5.8,81,0.00,,,-99.99,Meteorologica,2013-12-10 00:23:00,
2013-12-09 18:28:00,8.2,3.7,30.26,SSW,200,0.0,0.0,81,0.00,,,-99.99,Meteorologica,2013-12-10 00:28:00,
2013-12-09 18:33:00,8.1,3.7,30.27,South,169,1.1,4.7,82,0.00,,,-99.99,Meteorologica,2013-12-10 00:33:00,
2013-12-09 18:38:00,7.9,3.6,30.26,South,169,0.0,0.0,82,0.00,,,-99.99,Meteorologica,2013-12-10 00:38:00,
2013-12-09 18:43:00,7.7,3.4,30.26,South,169,0.0,0.0,82,0.00,,,-99.99,Meteorologica,2013-12-10 00:43:00,
2013-12-09 18:48:00,7.3,3.1,30.26,SSW,197,0.0,3.2,82,0.00,,,-99.99,Meteorologica,2013-12-10 00:48:00,
2013-12-09 18:53:00,6.9,2.8,30.26,SW,215,0.0,0.0,82,0.00,,,-99.99,Meteorologica,2013-12-10 00:53:00,
2013-12-09 18:58:00,6.7,2.7,30.26,SW,215,0.0,0.0,83,0.00,,,-99.99,Meteorologica,2013-12-10 00:58:00,
2013-12-09 19:03:00,6.5,2.6,30.26,SW,215,0.0,0.0,83,0.00,,,-99.99,Meteorologica,2013-12-10 01:03:00,
2013-12-09 19:08:00,6.3,2.5,30.26,SSE,149,0.0,0.0,84,0.00,,,-99.99,Meteorologica,2013-12-10 01:08:00,
2013-12-09 19:13:00,6.1,2.3,30.26,South,186,3.9,6.2,84,0.00,,,-99.99,Meteorologica,2013-12-10 01:13:00,
2013-12-09 19:18:00,5.8,2.2,30.26,South,183,0.1,5.6,84,0.00,,,-99.99,Meteorologica,2013-12-10 01:18:00,
2013-12-09 19:23:00,5.8,2.2,30.27,South,183,0.0,0.0,84,0.00,,,-99.99,Meteorologica,2013-12-10 01:23:00,
2013-12-09 19:28:00,5.6,2.0,30.27,East,86,0.0,0.0,85,0.00,,,-99.99,Meteorologica,2013-12-10 01:28:00,
2013-12-09 19:33:00,5.4,1.9,30.27,East,86,0.0,0.0,85,0.00,,,-99.99,Meteorologica,2013-12-10 01:33:00,
2013-12-09 19:38:00,5.2,3.0,30.27,SSW,199,0.0,3.5,90,0.00,,,-99.99,Meteorologica,2013-12-10 01:38:00,
2013-12-09 19:43:00,5.2,1.8,30.26,SSW,199,0.0,0.0,85,0.00,,,-99.99,Meteorologica,2013-12-10 01:43:00,
2013-12-09 19:48:00,5.1,1.7,30.26,SSW,199,0.0,0.0,85,0.00,,,-99.99,Meteorologica,2013-12-10 01:48:00,
2013-12-09 19:53:00,5.0,1.6,30.27,SSW,199,0.0,0.0,85,0.00,,,-99.99,Meteorologica,2013-12-10 01:53:00,
2013-12-09 19:58:00,4.6,1.3,30.27,SSW,199,0.0,0.0,86,0.00,,,-99.99,Meteorologica,2013-12-10 01:58:00,
2013-12-09 20:03:00,4.3,1.1,30.26,SSW,199,0.0,0.0,86,0.00,,,-99.99,Meteorologica,2013-12-10 02:03:00,
2013-12-09 20:08:00,4.2,1.1,30.27,SSW,199,0.0,0.0,86,0.00,,,-99.99,Meteorologica,2013-12-10 02:08:00,
2013-12-09 20:13:00,4.1,1.1,30.27,SSW,199,0.0,0.0,87,0.00,,,-99.99,Meteorologica,2013-12-10 02:13:00,
2013-12-09 20:18:00,3.9,0.9,30.27,SSW,199,0.0,0.0,87,0.00,,,-99.99,Meteorologica,2013-12-10 02:18:00,
2013-12-09 20:23:00,3.9,0.9,30.26,SSW,199,0.0,0.0,87,0.00,,,-99.99,Meteorologica,2013-12-10 02:23:00,
2013-12-09 20:28:00,3.9,0.9,30.26,SSW,199,0.0,0.0,87,0.00,,,-99.99,Meteorologica,2013-12-10 02:28:00,
2013-12-09 20:33:00,3.9,0.9,30.26,SSW,199,0.0,0.0,87,0.00,,,-99.99,Meteorologica,2013-12-10 02:33:00,
2013-12-09 20:38:00,3.8,0.8,30.26,SSW,199,0.0,0.0,87,0.00,,,-99.99,Meteorologica,2013-12-10 02:38:00,
2013-12-09 20:43:00,3.9,0.9,30.25,SSW,199,0.0,0.0,87,0.00,,,-99.99,Meteorologica,2013-12-10 02:43:00,
2013-12-09 20:48:00,3.7,0.7,30.25,SSW,199,0.0,0.0,87,0.00,,,-99.99,Meteorologica,2013-12-10 02:48:00,
2013-12-09 20:53:00,3.9,0.9,30.25,South,181,2.4,5.0,87,0.00,,,-99.99,Meteorologica,2013-12-10 02:53:00,
2013-12-09 20:58:00,4.0,0.9,30.25,SSE,167,4.3,6.4,86,0.00,,,-99.99,Meteorologica,2013-12-10 02:58:00,
2013-12-09 21:03:00,3.9,0.8,30.25,SSE,148,1.5,4.7,86,0.00,,,-99.99,Meteorologica,2013-12-10 03:03:00,
2013-12-09 21:08:00,3.7,0.7,30.25,SSE,148,0.0,0.0,87,0.00,,,-99.99,Meteorologica,2013-12-10 03:08:00,
2013-12-09 21:13:00,3.7,0.6,30.24,SSE,148,0.0,0.0,86,0.00,,,-99.99,Meteorologica,2013-12-10 03:13:00,
2013-12-09 21:18:00,3.8,0.8,30.23,South,175,0.0,5.5,87,0.00,,,-99.99,Meteorologica,2013-12-10 03:18:00,
2013-12-09 21:23:00,4.0,1.1,30.22,SSE,165,4.2,6.1,87,0.00,,,-99.99,Meteorologica,2013-12-10 03:23:00,
2013-12-09 21:28:00,4.0,1.0,30.23,South,184,5.1,8.2,87,0.00,,,-99.99,Meteorologica,2013-12-10 03:28:00,
2013-12-09 21:33:00,3.9,0.8,30.22,South,191,4.8,8.4,86,0.00,,,-99.99,Meteorologica,2013-12-10 03:33:00,
2013-12-09 21:38:00,3.7,0.7,30.22,South,187,5.7,8.3,87,0.00,,,-99.99,Meteorologica,2013-12-10 03:38:00,
2013-12-09 21:43:00,3.9,0.9,30.23,South,189,5.4,7.0,87,0.00,,,-99.99,Meteorologica,2013-12-10 03:43:00,
2013-12-09 21:48:00,4.0,1.2,30.23,SSW,196,3.7,7.8,88,0.00,,,-99.99,Meteorologica,2013-12-10 03:48:00,
2013-12-09 21:53:00,4.4,1.6,30.23,SSW,195,5.4,7.3,88,0.00,,,-99.99,Meteorologica,2013-12-10 03:53:00,
2013-12-09 21:58:00,4.7,1.8,30.23,SSW,194,3.9,7.6,87,0.00,,,-99.99,Meteorologica,2013-12-10 03:58:00,
2013-12-09 22:03:00,5.0,2.1,30.22,SSW,194,2.6,5.4,87,0.00,,,-99.99,Meteorologica,2013-12-10 04:03:00,
2013-12-09 22:08:00,5.2,2.2,30.21,South,174,4.4,6.2,87,0.00,,,-99.99,Meteorologica,2013-12-10 04:08:00,
2013-12-09 22:13:00,5.4,2.5,30.21,SSW,205,4.7,8.4,87,0.00,,,-99.99,Meteorologica,2013-12-10 04:13:00,
2013-12-09 22:18:00,6.0,3.1,30.21,SW,215,4.5,6.8,87,0.00,,,-99.99,Meteorologica,2013-12-10 04:18:00,
2013-12-09 22:23:00,6.5,3.6,30.21,SSW,212,5.7,7.8,87,0.00,,,-99.99,Meteorologica,2013-12-10 04:23:00,
2013-12-09 22:28:00,6.9,3.6,30.21,SSW,192,5.2,8.0,86,0.00,,,-99.99,Meteorologica,2013-12-10 04:28:00,
2013-12-09 22:33:00,7.3,3.9,30.22,SSW,201,2.8,6.1,85,0.00,,,-99.99,Meteorologica,2013-12-10 04:33:00,
2013-12-09 22:38:00,7.4,4.1,30.22,South,191,1.6,6.2,86,0.00,,,-99.99,Meteorologica,2013-12-10 04:38:00,
2013-12-09 22:43:00,8.3,5.1,30.21,SSW,213,6.9,10.0,86,0.00,,,-99.99,Meteorologica,2013-12-10 04:43:00,
2013-12-09 22:48:00,9.5,5.9,30.20,SW,216,5.5,10.0,85,0.00,,,-99.99,Meteorologica,2013-12-10 04:48:00,
2013-12-09 22:53:00,10.6,6.5,30.20,SSW,208,5.4,11.2,83,0.00,,,-99.99,Meteorologica,2013-12-10 04:53:00,
2013-12-09 22:58:00,11.1,6.6,30.20,South,186,6.4,9.9,81,0.00,,,-99.99,Meteorologica,2013-12-10 04:58:00,
2013-12-09 23:01:00,11.2,6.6,30.20,SSW,199,7.8,9.2,81,0.00,,,-99.99,Meteorologica,2013-12-10 05:01:00,
2013-12-09 23:02:00,11.4,6.7,30.20,SSW,193,7.0,9.2,81,0.00,,,-99.99,Meteorologica,2013-12-10 05:02:00,
2013-12-09 23:03:00,11.3,6.6,30.20,SW,214,8.3,12.2,81,0.00,,,-99.99,Meteorologica,2013-12-10 05:03:00,
2013-12-09 23:04:00,11.3,6.6,30.20,SW,217,6.4,12.2,81,0.00,,,-99.99,Meteorologica,2013-12-10 05:04:00,
2013-12-09 23:05:00,11.5,6.8,30.20,SSW,199,5.7,12.2,81,0.00,,,-99.99,Meteorologica,2013-12-10 05:05:00,
2013-12-09 23:10:00,11.4,6.6,30.20,SW,225,6.3,11.5,80,0.00,,,-99.99,Meteorologica,2013-12-10 05:10:00,
2013-12-09 23:14:00,11.6,6.8,30.19,SSW,210,7.2,10.5,80,0.00,,,-99.99,Meteorologica,2013-12-10 05:14:00,
2013-12-09 23:19:00,11.8,7.0,30.20,SW,216,7.9,11.1,80,0.00,,,-99.99,Meteorologica,2013-12-10 05:19:00,
2013-12-09 23:24:00,11.9,7.0,30.19,SW,214,7.7,9.1,80,0.00,,,-99.99,Meteorologica,2013-12-10 05:24:00,
2013-12-09 23:29:00,12.1,7.1,30.19,SW,231,6.3,11.3,80,0.00,,,-99.99,Meteorologica,2013-12-10 05:29:00,
2013-12-09 23:34:00,12.0,7.2,30.20,SW,218,5.1,10.3,80,0.00,,,-99.99,Meteorologica,2013-12-10 05:34:00,
2013-12-09 23:39:00,11.8,7.0,30.20,SSW,209,8.0,13.3,80,0.00,,,-99.99,Meteorologica,2013-12-10 05:39:00,
2013-12-09 23:44:00,11.7,7.0,30.19,WSW,250,7.7,10.5,81,0.00,,,-99.99,Meteorologica,2013-12-10 05:44:00,
2013-12-09 23:49:00,11.9,7.2,30.19,SW,226,7.1,11.2,81,0.00,,,-99.99,Meteorologica,2013-12-10 05:49:00,
2013-12-09 23:54:00,12.1,7.5,30.18,SSW,201,6.6,11.1,81,0.00,,,-99.99,Meteorologica,2013-12-10 05:54:00,
2013-12-09 23:59:00,12.3,7.6,30.18,SSW,207,6.3,8.7,81,0.00,,,-99.99,Meteorologica,2013-12-10 05:59:00,